Pagrindinis puslapis
METAR-TAF:

METAR-TAF

Oro uostai :

Kalmaras, Švedija

platuma: 56-44N, ilguma: 016-18E, Aukštis: 16 m

Dabartinis oras

Ataskaita buvo paskelbta 20 minutes, ne 03:50 UTC
Vėjas 2 kt iš Vakarų
Temperatūra -8°C
Drėgmė 92%
Slėgis 998 hPa
Matomumas 10 km arba daugiau

METAR: ESMQ 010350Z AUTO 27002KT 9999 BKN052/// M08/M09 Q0998

Laikas: 05:10 (04:10 UTC)

Prognozė

Ataskaita buvo paskelbta 10 valandos ir 40 minutes, ne 17:30 UTC
Prognozė galioja nuo 30 metu 18 UTC su 30 metu 20 UTC
Vėjas 9 kt iš Šiaurės/Šiaurės Vakarų
Matomumas 10 km arba daugiau
nėra debesų žemiau 1500 m ir nėra kamuolinių lietaus debesų

TAF: ESMQ 301730Z 3018/3020 34009KT CAVOK

Orai ataskaitas ir orų prognozės (METAR, TAF).

turimą stotys yra geltonos ir raudonos taškus žemėlapyje.

Perkelti pele per norėdami pamatyti stoties vardą.

Tada spustelėkite, norėdami matyti oro stebėjimo ir prognozės.

Norėdami pakeisti žemėlapį: spustelėkite ant žalios mygtukų su juodo kryžiaus žemyn,; žalią mygtuką su brūkšneliu, jei norite nutolinti; arba žalių rodyklių gretimoms žemėlapius.


METAR-TAF: